RYR1KM BIAR-EICK
Flight info
| Callsign | RYR1KM |
|---|---|
| Flight time | 2h 11m |
| Altitude | 37000 |
| Route | JARRI1F JARRI DCT ING DCT 6114N/N0445F370 DCT NIBOG DCT KURUM KURUM1R |
| Aircraft | A320/M-SDE3FGHIRWY/LB1 |
Departure
| Time | 2026-05-07 21:42 |
|---|---|
| Airport | Akureyri International Airport (BIAR) |
Arrival
| Time | 2026-05-07 23:53 |
|---|---|
| Airport | Cork International Airport (EICK) |
| Time | Latitude | Longitude | Altitude | Speed | Heading |
|---|---|---|---|---|---|
| 2026-05-07 21:31 | 65.65478 | -18.07489 | 18 ft | 0 kts | 12° |
| 2026-05-07 21:36 | 65.65476 | -18.07490 | 17 ft | 0 kts | 15° |
| 2026-05-07 21:36 | 65.65478 | -18.07489 | 17 ft | 0 kts | 15° |
| 2026-05-07 21:37 | 65.65481 | -18.07486 | 19 ft | 0 kts | 15° |
| 2026-05-07 21:38 | 65.65483 | -18.07479 | 17 ft | 1 kts | 43° |
| 2026-05-07 21:38 | 65.65477 | -18.07362 | 17 ft | 10 kts | 92° |
| 2026-05-07 21:38 | 65.65465 | -18.07171 | 16 ft | 14 kts | 142° |
| 2026-05-07 21:39 | 65.65360 | -18.07140 | 15 ft | 16 kts | 173° |
| 2026-05-07 21:39 | 65.65240 | -18.07124 | 15 ft | 19 kts | 176° |
| 2026-05-07 21:39 | 65.65107 | -18.07097 | 19 ft | 19 kts | 174° |
| 2026-05-07 21:39 | 65.64961 | -18.07070 | 20 ft | 22 kts | 176° |
| 2026-05-07 21:40 | 65.64735 | -18.07033 | 16 ft | 27 kts | 176° |
| 2026-05-07 21:40 | 65.64603 | -18.07007 | 14 ft | 27 kts | 174° |
| 2026-05-07 21:40 | 65.64485 | -18.06929 | 19 ft | 10 kts | 162° |
| 2026-05-07 21:40 | 65.64481 | -18.06977 | 18 ft | 4 kts | 346° |
| 2026-05-07 21:41 | 65.64523 | -18.06985 | 17 ft | 12 kts | 355° |
| 2026-05-07 21:41 | 65.64779 | -18.07038 | 19 ft | 69 kts | 355° |
| 2026-05-07 21:41 | 65.65445 | -18.07162 | 15 ft | 124 kts | 355° |
| 2026-05-07 21:41 | 65.66410 | -18.07340 | 313 ft | 141 kts | 355° |
| 2026-05-07 21:42 | 65.67396 | -18.07489 | 840 ft | 146 kts | 356° |
| 2026-05-07 21:42 | 65.68430 | -18.07611 | 1339 ft | 151 kts | 356° |
| 2026-05-07 21:42 | 65.69481 | -18.07699 | 2025 ft | 152 kts | 357° |
| 2026-05-07 21:42 | 65.70549 | -18.07926 | 2614 ft | 161 kts | 348° |
| 2026-05-07 21:43 | 65.71714 | -18.08633 | 2917 ft | 184 kts | 345° |
| 2026-05-07 21:43 | 65.73017 | -18.09496 | 3268 ft | 203 kts | 345° |
| 2026-05-07 21:43 | 65.74458 | -18.10407 | 3713 ft | 222 kts | 346° |
| 2026-05-07 21:43 | 65.76013 | -18.11324 | 4296 ft | 239 kts | 347° |
| 2026-05-07 21:44 | 65.77648 | -18.12381 | 5165 ft | 247 kts | 338° |
| 2026-05-07 21:44 | 65.79055 | -18.14858 | 6027 ft | 257 kts | 312° |
| 2026-05-07 21:44 | 65.79928 | -18.18714 | 6940 ft | 266 kts | 289° |
| 2026-05-07 21:44 | 65.80060 | -18.23253 | 7799 ft | 275 kts | 263° |
| 2026-05-07 21:45 | 65.79337 | -18.27621 | 8655 ft | 284 kts | 235° |
| 2026-05-07 21:45 | 65.77836 | -18.30787 | 9504 ft | 292 kts | 206° |
| 2026-05-07 21:45 | 65.75887 | -18.31892 | 10298 ft | 295 kts | 176° |
| 2026-05-07 21:45 | 65.73797 | -18.30997 | 10709 ft | 313 kts | 165° |
| 2026-05-07 21:46 | 65.71646 | -18.29691 | 11033 ft | 331 kts | 164° |
| 2026-05-07 21:46 | 65.69393 | -18.28251 | 11691 ft | 338 kts | 164° |
| 2026-05-07 21:46 | 65.67102 | -18.26790 | 12443 ft | 342 kts | 164° |
| 2026-05-07 21:46 | 65.64781 | -18.25334 | 13203 ft | 347 kts | 164° |
| 2026-05-07 21:47 | 65.62455 | -18.23902 | 13933 ft | 351 kts | 165° |
| 2026-05-07 21:47 | 65.60067 | -18.22454 | 14619 ft | 356 kts | 165° |
| 2026-05-07 21:47 | 65.57652 | -18.21000 | 15314 ft | 360 kts | 165° |
| 2026-05-07 21:47 | 65.55208 | -18.19536 | 15937 ft | 364 kts | 165° |
| 2026-05-07 21:48 | 65.52739 | -18.18068 | 16596 ft | 367 kts | 165° |
| 2026-05-07 21:48 | 65.50244 | -18.16586 | 17247 ft | 371 kts | 165° |
| 2026-05-07 21:48 | 65.47726 | -18.15090 | 17895 ft | 375 kts | 165° |
| 2026-05-07 21:48 | 65.45180 | -18.13581 | 18538 ft | 379 kts | 165° |
| 2026-05-07 21:49 | 65.42608 | -18.12059 | 19125 ft | 383 kts | 165° |
| 2026-05-07 21:49 | 65.40008 | -18.10526 | 19715 ft | 387 kts | 165° |
| 2026-05-07 21:49 | 65.37383 | -18.08973 | 20342 ft | 390 kts | 165° |
| 2026-05-07 21:49 | 65.34733 | -18.07403 | 20970 ft | 394 kts | 165° |
| 2026-05-07 21:50 | 65.32060 | -18.05823 | 21584 ft | 398 kts | 165° |
| 2026-05-07 21:50 | 65.29393 | -18.04250 | 22191 ft | 401 kts | 165° |
| 2026-05-07 21:50 | 65.26668 | -18.02645 | 22788 ft | 405 kts | 165° |
| 2026-05-07 21:50 | 65.23914 | -18.01026 | 23393 ft | 409 kts | 165° |
| 2026-05-07 21:51 | 65.21141 | -17.99358 | 23961 ft | 413 kts | 162° |
| 2026-05-07 21:51 | 65.18445 | -17.96968 | 24426 ft | 415 kts | 155° |
| 2026-05-07 21:51 | 65.15777 | -17.94253 | 24909 ft | 418 kts | 155° |
| 2026-05-07 21:51 | 65.13091 | -17.91523 | 25388 ft | 422 kts | 155° |
| 2026-05-07 21:52 | 65.10384 | -17.88771 | 25861 ft | 425 kts | 155° |
| 2026-05-07 21:52 | 65.07653 | -17.85997 | 26334 ft | 428 kts | 155° |
| 2026-05-07 21:52 | 65.04901 | -17.83211 | 26795 ft | 432 kts | 155° |
| 2026-05-07 21:52 | 65.02128 | -17.80413 | 27257 ft | 435 kts | 155° |
| 2026-05-07 21:53 | 64.99324 | -17.77600 | 27710 ft | 439 kts | 156° |
| 2026-05-07 21:53 | 64.96504 | -17.74782 | 28167 ft | 442 kts | 156° |
| 2026-05-07 21:53 | 64.93694 | -17.71978 | 28614 ft | 445 kts | 156° |
| 2026-05-07 21:53 | 64.90794 | -17.69085 | 29061 ft | 449 kts | 156° |
| 2026-05-07 21:54 | 64.87907 | -17.66209 | 29494 ft | 452 kts | 155° |
| 2026-05-07 21:54 | 64.85034 | -17.63359 | 29912 ft | 455 kts | 156° |
| 2026-05-07 21:54 | 64.82114 | -17.60467 | 30355 ft | 457 kts | 155° |
| 2026-05-07 21:54 | 64.79176 | -17.57565 | 30645 ft | 460 kts | 156° |
| 2026-05-07 21:55 | 64.76211 | -17.54646 | 30964 ft | 463 kts | 156° |
| 2026-05-07 21:55 | 64.73229 | -17.51722 | 31246 ft | 467 kts | 156° |
| 2026-05-07 21:55 | 64.70234 | -17.48792 | 31661 ft | 466 kts | 156° |
| 2026-05-07 21:55 | 64.67235 | -17.45864 | 32111 ft | 466 kts | 156° |
| 2026-05-07 21:56 | 64.64235 | -17.42939 | 32347 ft | 471 kts | 156° |
| 2026-05-07 21:56 | 64.61181 | -17.39966 | 32490 ft | 478 kts | 156° |
| 2026-05-07 21:56 | 64.58098 | -17.36971 | 32611 ft | 484 kts | 156° |
| 2026-05-07 21:56 | 64.54976 | -17.33946 | 32778 ft | 487 kts | 156° |
| 2026-05-07 21:57 | 64.51899 | -17.30970 | 33050 ft | 488 kts | 156° |
| 2026-05-07 21:57 | 64.48783 | -17.27965 | 33380 ft | 487 kts | 157° |
| 2026-05-07 21:57 | 64.45665 | -17.24963 | 33728 ft | 486 kts | 156° |
| 2026-05-07 21:57 | 64.42544 | -17.21968 | 34039 ft | 485 kts | 156° |
| 2026-05-07 21:58 | 64.39417 | -17.18984 | 34252 ft | 488 kts | 157° |
| 2026-05-07 21:58 | 64.36281 | -17.16000 | 34560 ft | 486 kts | 157° |
| 2026-05-07 21:58 | 64.33152 | -17.13023 | 34821 ft | 485 kts | 157° |
| 2026-05-07 21:58 | 64.30041 | -17.10062 | 35117 ft | 484 kts | 156° |
| 2026-05-07 21:59 | 64.26921 | -17.07101 | 35339 ft | 486 kts | 157° |
| 2026-05-07 21:59 | 64.23792 | -17.04142 | 35561 ft | 486 kts | 157° |
| 2026-05-07 21:59 | 64.20657 | -17.01190 | 35839 ft | 486 kts | 157° |
| 2026-05-07 21:59 | 64.17528 | -16.98253 | 36118 ft | 486 kts | 158° |
| 2026-05-07 22:00 | 64.14397 | -16.95320 | 36406 ft | 486 kts | 158° |
| 2026-05-07 22:00 | 64.11271 | -16.92400 | 36652 ft | 486 kts | 158° |
| 2026-05-07 22:00 | 64.08144 | -16.89487 | 36904 ft | 486 kts | 158° |
| 2026-05-07 22:00 | 64.05014 | -16.86574 | 37119 ft | 486 kts | 158° |
| 2026-05-07 22:01 | 63.98754 | -16.80749 | 37165 ft | 485 kts | 157° |
| 2026-05-07 22:01 | 63.92698 | -16.75140 | 37167 ft | 484 kts | 157° |
| 2026-05-07 22:02 | 63.86975 | -16.69887 | 37168 ft | 485 kts | 158° |
| 2026-05-07 22:02 | 63.84093 | -16.67256 | 37169 ft | 485 kts | 158° |
| 2026-05-07 22:03 | 63.81293 | -16.64709 | 37166 ft | 484 kts | 158° |
| 2026-05-07 22:03 | 63.76745 | -16.60429 | 37158 ft | 485 kts | 155° |
| 2026-05-07 22:04 | 63.72110 | -16.55628 | 37150 ft | 486 kts | 154° |
| 2026-05-07 22:04 | 63.70045 | -16.53406 | 37157 ft | 485 kts | 154° |
| 2026-05-07 22:05 | 63.67877 | -16.51061 | 37158 ft | 486 kts | 154° |
| 2026-05-07 22:05 | 63.63966 | -16.46861 | 37166 ft | 485 kts | 154° |
| 2026-05-07 22:06 | 63.60837 | -16.43573 | 37166 ft | 485 kts | 154° |
| 2026-05-07 22:06 | 63.58540 | -16.41199 | 37164 ft | 485 kts | 155° |
| 2026-05-07 22:07 | 63.56134 | -16.38740 | 37160 ft | 486 kts | 155° |
| 2026-05-07 22:07 | 63.53775 | -16.36345 | 37154 ft | 486 kts | 155° |
| 2026-05-07 22:08 | 63.51694 | -16.34240 | 37155 ft | 486 kts | 155° |
| 2026-05-07 22:08 | 63.49598 | -16.32120 | 37158 ft | 486 kts | 155° |
| 2026-05-07 22:09 | 63.47274 | -16.29770 | 37160 ft | 486 kts | 155° |
| 2026-05-07 22:09 | 63.44995 | -16.27462 | 37166 ft | 486 kts | 155° |
| 2026-05-07 22:10 | 63.40983 | -16.23403 | 37152 ft | 486 kts | 155° |
| 2026-05-07 22:10 | 63.37429 | -16.19813 | 37142 ft | 487 kts | 155° |
| 2026-05-07 22:11 | 63.33208 | -16.15552 | 37134 ft | 488 kts | 155° |
| 2026-05-07 22:11 | 63.29070 | -16.11393 | 37133 ft | 488 kts | 155° |
| 2026-05-07 22:12 | 63.24693 | -16.07009 | 37144 ft | 487 kts | 155° |
| 2026-05-07 22:12 | 63.19551 | -16.01884 | 37133 ft | 488 kts | 155° |
| 2026-05-07 22:13 | 63.13392 | -15.95772 | 37130 ft | 488 kts | 155° |
| 2026-05-07 22:13 | 63.07394 | -15.89855 | 37145 ft | 486 kts | 155° |
| 2026-05-07 22:14 | 63.01227 | -15.83766 | 37139 ft | 485 kts | 155° |
| 2026-05-07 22:14 | 62.95065 | -15.77708 | 37127 ft | 485 kts | 155° |
| 2026-05-07 22:15 | 62.88899 | -15.71706 | 37125 ft | 484 kts | 156° |
| 2026-05-07 22:15 | 62.82742 | -15.65748 | 37113 ft | 483 kts | 156° |
| 2026-05-07 22:16 | 62.76589 | -15.59784 | 37117 ft | 483 kts | 156° |
| 2026-05-07 22:16 | 62.70441 | -15.53880 | 37107 ft | 482 kts | 156° |
| 2026-05-07 22:17 | 62.64300 | -15.48016 | 37103 ft | 482 kts | 156° |
| 2026-05-07 22:17 | 62.58157 | -15.42160 | 37087 ft | 482 kts | 156° |
| 2026-05-07 22:18 | 62.48968 | -15.33431 | 37083 ft | 480 kts | 156° |
| 2026-05-07 22:19 | 62.42840 | -15.27659 | 37079 ft | 480 kts | 156° |
| 2026-05-07 22:19 | 62.36755 | -15.21951 | 37064 ft | 480 kts | 156° |
| 2026-05-07 22:20 | 62.30627 | -15.16231 | 37065 ft | 480 kts | 156° |
| 2026-05-07 22:20 | 62.24507 | -15.10556 | 37049 ft | 480 kts | 157° |
| 2026-05-07 22:21 | 62.18380 | -15.04876 | 37037 ft | 479 kts | 156° |
| 2026-05-07 22:21 | 62.12258 | -14.99225 | 37038 ft | 479 kts | 157° |
| 2026-05-07 22:22 | 62.06133 | -14.93616 | 37022 ft | 479 kts | 157° |
| 2026-05-07 22:22 | 62.00002 | -14.88020 | 37026 ft | 479 kts | 157° |
| 2026-05-07 22:23 | 61.93874 | -14.82452 | 37015 ft | 478 kts | 157° |
| 2026-05-07 22:23 | 61.87754 | -14.76896 | 37012 ft | 478 kts | 157° |
| 2026-05-07 22:24 | 61.81636 | -14.71362 | 36997 ft | 478 kts | 157° |
| 2026-05-07 22:24 | 61.75511 | -14.65862 | 37001 ft | 478 kts | 158° |
| 2026-05-07 22:25 | 61.69390 | -14.60384 | 36983 ft | 478 kts | 158° |
| 2026-05-07 22:25 | 61.63267 | -14.54939 | 36985 ft | 478 kts | 158° |
| 2026-05-07 22:26 | 61.58177 | -14.50444 | 36977 ft | 477 kts | 158° |
| 2026-05-07 22:26 | 61.52056 | -14.45056 | 36974 ft | 477 kts | 158° |
| 2026-05-07 22:27 | 61.44935 | -14.38802 | 36961 ft | 477 kts | 158° |
| 2026-05-07 22:27 | 61.39809 | -14.34307 | 36952 ft | 477 kts | 158° |
| 2026-05-07 22:28 | 61.33727 | -14.28995 | 36952 ft | 477 kts | 158° |
| 2026-05-07 22:28 | 61.27600 | -14.23669 | 36941 ft | 477 kts | 158° |
| 2026-05-07 22:29 | 61.21477 | -14.18383 | 36945 ft | 476 kts | 158° |
| 2026-05-07 22:29 | 61.15348 | -14.13105 | 36927 ft | 477 kts | 159° |
| 2026-05-07 22:30 | 61.09223 | -14.07853 | 36926 ft | 476 kts | 159° |
| 2026-05-07 22:30 | 61.03099 | -14.02636 | 36931 ft | 476 kts | 158° |
| 2026-05-07 22:31 | 60.96953 | -13.97492 | 36931 ft | 476 kts | 160° |
| 2026-05-07 22:31 | 60.90771 | -13.92565 | 36922 ft | 476 kts | 160° |
| 2026-05-07 22:32 | 60.84578 | -13.87718 | 36914 ft | 476 kts | 159° |
| 2026-05-07 22:32 | 60.78393 | -13.82857 | 36913 ft | 476 kts | 160° |
| 2026-05-07 22:33 | 60.72205 | -13.78002 | 36905 ft | 477 kts | 160° |
| 2026-05-07 22:33 | 60.66009 | -13.73161 | 36908 ft | 476 kts | 160° |
| 2026-05-07 22:34 | 60.59866 | -13.68382 | 36866 ft | 475 kts | 161° |
| 2026-05-07 22:34 | 60.53690 | -13.63588 | 36868 ft | 475 kts | 160° |
| 2026-05-07 22:35 | 60.47522 | -13.58805 | 36857 ft | 475 kts | 160° |
| 2026-05-07 22:35 | 60.41340 | -13.54028 | 36855 ft | 475 kts | 161° |
| 2026-05-07 22:36 | 60.35164 | -13.49311 | 36841 ft | 474 kts | 160° |
| 2026-05-07 22:36 | 60.28989 | -13.44612 | 36837 ft | 474 kts | 161° |
| 2026-05-07 22:37 | 60.22812 | -13.39899 | 36833 ft | 475 kts | 161° |
| 2026-05-07 22:37 | 60.16635 | -13.35222 | 36828 ft | 475 kts | 160° |
| 2026-05-07 22:38 | 60.10487 | -13.30594 | 36828 ft | 475 kts | 161° |
| 2026-05-07 22:38 | 60.04304 | -13.25944 | 36815 ft | 475 kts | 161° |
| 2026-05-07 22:39 | 59.98127 | -13.21323 | 36832 ft | 475 kts | 161° |
| 2026-05-07 22:39 | 59.91939 | -13.16716 | 36815 ft | 474 kts | 161° |
| 2026-05-07 22:40 | 59.85747 | -13.12131 | 36805 ft | 474 kts | 162° |
| 2026-05-07 22:40 | 59.79560 | -13.07556 | 36796 ft | 474 kts | 162° |
| 2026-05-07 22:41 | 59.73384 | -13.02996 | 36796 ft | 473 kts | 161° |
| 2026-05-07 22:41 | 59.67205 | -12.98468 | 36801 ft | 473 kts | 162° |
| 2026-05-07 22:42 | 59.61035 | -12.93953 | 36799 ft | 472 kts | 163° |
| 2026-05-07 22:42 | 59.54894 | -12.89474 | 36796 ft | 472 kts | 162° |
| 2026-05-07 22:43 | 59.49694 | -12.85706 | 36779 ft | 472 kts | 163° |
| 2026-05-07 22:43 | 59.43685 | -12.81365 | 36789 ft | 471 kts | 161° |
| 2026-05-07 22:44 | 59.37531 | -12.76923 | 36778 ft | 471 kts | 163° |
| 2026-05-07 22:44 | 59.31376 | -12.72508 | 36773 ft | 471 kts | 163° |
| 2026-05-07 22:45 | 59.25218 | -12.68130 | 36741 ft | 471 kts | 162° |
| 2026-05-07 22:45 | 59.19060 | -12.63760 | 36737 ft | 470 kts | 163° |
| 2026-05-07 22:46 | 59.12917 | -12.59387 | 36745 ft | 470 kts | 162° |
| 2026-05-07 22:46 | 59.06765 | -12.55016 | 36746 ft | 470 kts | 164° |
| 2026-05-07 22:47 | 59.00659 | -12.50724 | 36746 ft | 469 kts | 164° |
| 2026-05-07 22:47 | 58.94514 | -12.46441 | 36735 ft | 469 kts | 163° |
| 2026-05-07 22:48 | 58.88376 | -12.42155 | 36743 ft | 469 kts | 164° |
| 2026-05-07 22:48 | 58.82238 | -12.37888 | 36745 ft | 468 kts | 164° |
| 2026-05-07 22:49 | 58.76104 | -12.33621 | 36748 ft | 468 kts | 163° |
| 2026-05-07 22:49 | 58.69972 | -12.29381 | 36738 ft | 468 kts | 163° |
| 2026-05-07 22:50 | 58.63835 | -12.25158 | 36752 ft | 467 kts | 165° |
| 2026-05-07 22:50 | 58.57781 | -12.21022 | 36749 ft | 467 kts | 163° |
| 2026-05-07 22:51 | 58.51666 | -12.16865 | 36750 ft | 466 kts | 163° |
| 2026-05-07 22:51 | 58.45559 | -12.12706 | 36748 ft | 466 kts | 165° |
| 2026-05-07 22:52 | 58.40585 | -12.09326 | 36747 ft | 465 kts | 163° |
| 2026-05-07 22:52 | 58.34490 | -12.05208 | 36752 ft | 465 kts | 166° |
| 2026-05-07 22:53 | 58.28394 | -12.01107 | 36756 ft | 464 kts | 163° |
| 2026-05-07 22:53 | 58.22298 | -11.97024 | 36766 ft | 464 kts | 163° |
| 2026-05-07 22:54 | 58.16217 | -11.92954 | 36749 ft | 464 kts | 165° |
| 2026-05-07 22:54 | 58.10144 | -11.88886 | 36765 ft | 463 kts | 165° |
| 2026-05-07 22:55 | 58.04081 | -11.84872 | 36757 ft | 463 kts | 163° |
| 2026-05-07 22:55 | 57.98002 | -11.80876 | 36748 ft | 464 kts | 165° |
| 2026-05-07 22:56 | 57.92159 | -11.77042 | 36739 ft | 464 kts | 165° |
| 2026-05-07 22:56 | 57.86109 | -11.73064 | 36761 ft | 463 kts | 164° |
| 2026-05-07 22:57 | 57.80025 | -11.69069 | 36771 ft | 463 kts | 164° |
| 2026-05-07 22:57 | 57.73940 | -11.65090 | 36772 ft | 463 kts | 166° |
| 2026-05-07 22:58 | 57.67991 | -11.61234 | 36781 ft | 462 kts | 166° |
| 2026-05-07 22:58 | 57.63972 | -11.58639 | 36765 ft | 462 kts | 166° |
| 2026-05-07 22:59 | 57.60960 | -11.56696 | 36785 ft | 462 kts | 165° |
| 2026-05-07 22:59 | 57.58270 | -11.54958 | 36787 ft | 461 kts | 166° |
| 2026-05-07 23:00 | 57.53617 | -11.51961 | 36790 ft | 461 kts | 166° |
| 2026-05-07 23:00 | 57.47557 | -11.48075 | 36796 ft | 461 kts | 166° |
| 2026-05-07 23:01 | 57.41497 | -11.44190 | 36802 ft | 460 kts | 166° |
| 2026-05-07 23:01 | 57.36712 | -11.41147 | 36797 ft | 460 kts | 165° |
| 2026-05-07 23:02 | 57.34177 | -11.39542 | 36790 ft | 460 kts | 165° |
| 2026-05-07 23:02 | 57.31449 | -11.37812 | 36798 ft | 460 kts | 165° |
| 2026-05-07 23:03 | 57.25444 | -11.33991 | 36823 ft | 459 kts | 165° |
| 2026-05-07 23:03 | 57.19402 | -11.30172 | 36843 ft | 459 kts | 165° |
| 2026-05-07 23:04 | 57.13361 | -11.26379 | 36823 ft | 459 kts | 166° |
| 2026-05-07 23:04 | 57.07309 | -11.22588 | 36851 ft | 459 kts | 166° |
| 2026-05-07 23:05 | 57.01269 | -11.18809 | 36858 ft | 459 kts | 165° |
| 2026-05-07 23:05 | 56.95222 | -11.15036 | 36870 ft | 459 kts | 165° |
| 2026-05-07 23:06 | 56.89177 | -11.11289 | 36872 ft | 459 kts | 166° |
| 2026-05-07 23:06 | 56.83131 | -11.07562 | 36868 ft | 458 kts | 165° |
| 2026-05-07 23:07 | 56.77084 | -11.03843 | 36885 ft | 458 kts | 165° |
| 2026-05-07 23:07 | 56.71042 | -11.00119 | 36883 ft | 458 kts | 165° |
| 2026-05-07 23:08 | 56.65040 | -10.96435 | 36900 ft | 458 kts | 165° |
| 2026-05-07 23:08 | 56.58990 | -10.92744 | 36889 ft | 458 kts | 165° |
| 2026-05-07 23:09 | 56.52949 | -10.89068 | 36906 ft | 458 kts | 165° |
| 2026-05-07 23:09 | 56.46909 | -10.85410 | 36921 ft | 458 kts | 165° |
| 2026-05-07 23:10 | 56.40865 | -10.81757 | 36914 ft | 458 kts | 165° |
| 2026-05-07 23:10 | 56.34811 | -10.78122 | 36900 ft | 457 kts | 165° |
| 2026-05-07 23:11 | 56.28778 | -10.74507 | 36934 ft | 457 kts | 165° |
| 2026-05-07 23:11 | 56.22734 | -10.70899 | 36944 ft | 456 kts | 165° |
| 2026-05-07 23:12 | 56.17734 | -10.67910 | 36948 ft | 456 kts | 165° |
| 2026-05-07 23:12 | 56.11708 | -10.64328 | 36955 ft | 456 kts | 166° |
| 2026-05-07 23:13 | 56.05692 | -10.60754 | 36954 ft | 455 kts | 166° |
| 2026-05-07 23:13 | 55.99682 | -10.57196 | 36961 ft | 455 kts | 166° |
| 2026-05-07 23:14 | 55.93671 | -10.53658 | 36971 ft | 454 kts | 166° |
| 2026-05-07 23:14 | 55.87665 | -10.50151 | 36972 ft | 454 kts | 166° |
| 2026-05-07 23:15 | 55.81659 | -10.46646 | 36970 ft | 454 kts | 166° |
| 2026-05-07 23:15 | 55.75655 | -10.43156 | 36974 ft | 454 kts | 166° |
| 2026-05-07 23:16 | 55.69689 | -10.39678 | 36978 ft | 454 kts | 166° |
| 2026-05-07 23:16 | 55.63689 | -10.36192 | 36985 ft | 454 kts | 166° |
| 2026-05-07 23:17 | 55.57682 | -10.32728 | 36983 ft | 454 kts | 166° |
| 2026-05-07 23:17 | 55.51686 | -10.29278 | 36988 ft | 453 kts | 166° |
| 2026-05-07 23:18 | 55.45686 | -10.25838 | 36989 ft | 453 kts | 166° |
| 2026-05-07 23:18 | 55.39688 | -10.22412 | 36991 ft | 453 kts | 166° |
| 2026-05-07 23:19 | 55.33686 | -10.19005 | 36972 ft | 453 kts | 166° |
| 2026-05-07 23:19 | 55.27686 | -10.15589 | 36987 ft | 453 kts | 166° |
| 2026-05-07 23:20 | 55.21684 | -10.12186 | 37001 ft | 453 kts | 166° |
| 2026-05-07 23:20 | 55.15685 | -10.08795 | 37001 ft | 453 kts | 166° |
| 2026-05-07 23:21 | 55.09684 | -10.05425 | 36978 ft | 452 kts | 166° |
| 2026-05-07 23:21 | 55.03688 | -10.02074 | 36995 ft | 452 kts | 166° |
| 2026-05-07 23:22 | 54.97813 | -9.98798 | 37006 ft | 451 kts | 167° |
| 2026-05-07 23:22 | 54.91799 | -9.95677 | 37008 ft | 451 kts | 168° |
| 2026-05-07 23:23 | 54.85775 | -9.92653 | 36983 ft | 450 kts | 168° |
| 2026-05-07 23:23 | 54.79751 | -9.89608 | 36995 ft | 451 kts | 167° |
| 2026-05-07 23:24 | 54.73733 | -9.86547 | 37013 ft | 451 kts | 167° |
| 2026-05-07 23:24 | 54.67713 | -9.83470 | 37013 ft | 451 kts | 167° |
| 2026-05-07 23:25 | 54.61689 | -9.80408 | 37024 ft | 451 kts | 167° |
| 2026-05-07 23:25 | 54.55661 | -9.77362 | 37007 ft | 451 kts | 168° |
| 2026-05-07 23:26 | 54.49635 | -9.74328 | 37014 ft | 451 kts | 168° |
| 2026-05-07 23:26 | 54.43613 | -9.71313 | 37018 ft | 451 kts | 168° |
| 2026-05-07 23:27 | 54.34570 | -9.66777 | 36994 ft | 451 kts | 168° |
| 2026-05-07 23:27 | 54.28589 | -9.63794 | 36999 ft | 451 kts | 168° |
| 2026-05-07 23:28 | 54.22527 | -9.60784 | 37008 ft | 451 kts | 168° |
| 2026-05-07 23:28 | 54.16539 | -9.57821 | 37012 ft | 451 kts | 168° |
| 2026-05-07 23:29 | 54.10510 | -9.54849 | 36998 ft | 451 kts | 168° |
| 2026-05-07 23:29 | 54.04472 | -9.51882 | 36996 ft | 452 kts | 168° |
| 2026-05-07 23:30 | 53.98426 | -9.48933 | 37015 ft | 452 kts | 168° |
| 2026-05-07 23:30 | 53.92376 | -9.45964 | 37021 ft | 452 kts | 168° |
| 2026-05-07 23:31 | 53.86331 | -9.43001 | 37003 ft | 453 kts | 168° |
| 2026-05-07 23:31 | 53.80276 | -9.40038 | 37014 ft | 453 kts | 168° |
| 2026-05-07 23:32 | 53.74212 | -9.37100 | 37022 ft | 453 kts | 168° |
| 2026-05-07 23:32 | 53.68185 | -9.34214 | 37026 ft | 453 kts | 168° |
| 2026-05-07 23:33 | 53.62113 | -9.31282 | 36999 ft | 454 kts | 168° |
| 2026-05-07 23:33 | 53.56040 | -9.28347 | 37013 ft | 454 kts | 168° |
| 2026-05-07 23:34 | 53.49964 | -9.25443 | 37020 ft | 454 kts | 168° |
| 2026-05-07 23:34 | 53.43884 | -9.22538 | 37027 ft | 454 kts | 168° |
| 2026-05-07 23:35 | 53.37805 | -9.19630 | 36781 ft | 454 kts | 169° |
| 2026-05-07 23:35 | 53.34763 | -9.18185 | 35610 ft | 454 kts | 169° |
| 2026-05-07 23:35 | 53.31730 | -9.16747 | 34449 ft | 452 kts | 170° |
| 2026-05-07 23:36 | 53.28711 | -9.15317 | 33193 ft | 450 kts | 170° |
| 2026-05-07 23:36 | 53.25702 | -9.13893 | 31916 ft | 449 kts | 169° |
| 2026-05-07 23:36 | 53.22736 | -9.12492 | 30702 ft | 448 kts | 169° |
| 2026-05-07 23:36 | 53.19698 | -9.11061 | 29404 ft | 448 kts | 169° |
| 2026-05-07 23:37 | 53.16725 | -9.09667 | 28075 ft | 448 kts | 168° |
| 2026-05-07 23:37 | 53.13740 | -9.08266 | 26474 ft | 447 kts | 168° |
| 2026-05-07 23:37 | 53.10790 | -9.06887 | 25690 ft | 456 kts | 168° |
| 2026-05-07 23:37 | 53.07730 | -9.05452 | 25310 ft | 455 kts | 168° |
| 2026-05-07 23:38 | 53.04698 | -9.04022 | 25108 ft | 451 kts | 168° |
| 2026-05-07 23:38 | 53.01673 | -9.02597 | 24973 ft | 452 kts | 168° |
| 2026-05-07 23:38 | 52.98627 | -9.01169 | 25004 ft | 459 kts | 168° |
| 2026-05-07 23:38 | 52.95527 | -8.99723 | 25001 ft | 465 kts | 168° |
| 2026-05-07 23:39 | 52.92407 | -8.98271 | 25002 ft | 467 kts | 168° |
| 2026-05-07 23:39 | 52.89265 | -8.96814 | 24998 ft | 468 kts | 168° |
| 2026-05-07 23:39 | 52.86127 | -8.95360 | 25003 ft | 469 kts | 168° |
| 2026-05-07 23:39 | 52.82984 | -8.93908 | 25003 ft | 469 kts | 168° |
| 2026-05-07 23:40 | 52.79838 | -8.92457 | 25004 ft | 469 kts | 168° |
| 2026-05-07 23:40 | 52.76691 | -8.91003 | 25006 ft | 469 kts | 168° |
| 2026-05-07 23:40 | 52.73550 | -8.89551 | 25005 ft | 469 kts | 168° |
| 2026-05-07 23:40 | 52.70399 | -8.88092 | 24888 ft | 469 kts | 168° |
| 2026-05-07 23:41 | 52.67286 | -8.86651 | 23802 ft | 461 kts | 167° |
| 2026-05-07 23:41 | 52.64383 | -8.85314 | 22561 ft | 453 kts | 167° |
| 2026-05-07 23:41 | 52.61377 | -8.83935 | 21277 ft | 445 kts | 167° |
| 2026-05-07 23:41 | 52.58423 | -8.82583 | 20080 ft | 437 kts | 167° |
| 2026-05-07 23:42 | 52.55551 | -8.81271 | 18949 ft | 430 kts | 167° |
| 2026-05-07 23:42 | 52.52742 | -8.79990 | 17819 ft | 424 kts | 167° |
| 2026-05-07 23:42 | 52.49919 | -8.78704 | 16616 ft | 417 kts | 167° |
| 2026-05-07 23:42 | 52.47141 | -8.77438 | 15490 ft | 411 kts | 167° |
| 2026-05-07 23:43 | 52.44406 | -8.76194 | 14393 ft | 405 kts | 167° |
| 2026-05-07 23:43 | 52.41759 | -8.74993 | 13315 ft | 399 kts | 166° |
| 2026-05-07 23:43 | 52.39099 | -8.73787 | 12194 ft | 394 kts | 166° |
| 2026-05-07 23:43 | 52.36756 | -8.72724 | 11236 ft | 389 kts | 166° |
| 2026-05-07 23:44 | 52.34190 | -8.71561 | 10418 ft | 374 kts | 166° |
| 2026-05-07 23:44 | 52.31798 | -8.70470 | 10061 ft | 343 kts | 166° |
| 2026-05-07 23:44 | 52.29641 | -8.69487 | 9816 ft | 316 kts | 166° |
| 2026-05-07 23:44 | 52.27541 | -8.68536 | 8946 ft | 311 kts | 166° |
| 2026-05-07 23:45 | 52.25488 | -8.67615 | 8378 ft | 299 kts | 166° |
| 2026-05-07 23:45 | 52.23534 | -8.66763 | 8001 ft | 282 kts | 169° |
| 2026-05-07 23:45 | 52.21643 | -8.66561 | 7666 ft | 266 kts | 185° |
| 2026-05-07 23:45 | 52.19842 | -8.66763 | 7329 ft | 253 kts | 184° |
| 2026-05-07 23:46 | 52.18122 | -8.66949 | 7025 ft | 242 kts | 184° |
| 2026-05-07 23:46 | 52.16502 | -8.67124 | 6728 ft | 231 kts | 184° |
| 2026-05-07 23:46 | 52.14935 | -8.67176 | 6446 ft | 220 kts | 172° |
| 2026-05-07 23:46 | 52.13487 | -8.66593 | 6106 ft | 214 kts | 162° |
| 2026-05-07 23:47 | 52.12058 | -8.65764 | 5462 ft | 221 kts | 160° |
| 2026-05-07 23:47 | 52.10596 | -8.64881 | 4849 ft | 227 kts | 160° |
| 2026-05-07 23:47 | 52.09098 | -8.63981 | 4178 ft | 233 kts | 160° |
| 2026-05-07 23:47 | 52.07571 | -8.63066 | 3744 ft | 228 kts | 160° |
| 2026-05-07 23:48 | 52.06140 | -8.62209 | 3614 ft | 211 kts | 160° |
| 2026-05-07 23:48 | 52.04792 | -8.61403 | 3486 ft | 202 kts | 161° |
| 2026-05-07 23:48 | 52.03496 | -8.60629 | 3361 ft | 194 kts | 161° |
| 2026-05-07 23:48 | 52.02275 | -8.59899 | 3264 ft | 179 kts | 161° |
| 2026-05-07 23:49 | 52.01110 | -8.59205 | 2971 ft | 185 kts | 161° |
| 2026-05-07 23:49 | 51.99854 | -8.58456 | 2995 ft | 197 kts | 161° |
| 2026-05-07 23:49 | 51.98558 | -8.57684 | 3005 ft | 199 kts | 161° |
| 2026-05-07 23:49 | 51.97255 | -8.56907 | 2991 ft | 200 kts | 161° |
| 2026-05-07 23:50 | 51.96007 | -8.56163 | 2812 ft | 183 kts | 161° |
| 2026-05-07 23:50 | 51.94854 | -8.55477 | 2593 ft | 171 kts | 161° |
| 2026-05-07 23:50 | 51.93774 | -8.54834 | 2379 ft | 159 kts | 161° |
| 2026-05-07 23:50 | 51.92791 | -8.54250 | 2177 ft | 144 kts | 161° |
| 2026-05-07 23:51 | 51.91865 | -8.53700 | 1985 ft | 140 kts | 161° |
| 2026-05-07 23:51 | 51.90960 | -8.53163 | 1793 ft | 138 kts | 161° |
| 2026-05-07 23:51 | 51.90062 | -8.52630 | 1607 ft | 137 kts | 161° |
| 2026-05-07 23:51 | 51.89189 | -8.52112 | 1418 ft | 137 kts | 161° |
| 2026-05-07 23:52 | 51.88299 | -8.51584 | 1221 ft | 136 kts | 161° |
| 2026-05-07 23:52 | 51.87415 | -8.51061 | 1033 ft | 134 kts | 160° |
| 2026-05-07 23:52 | 51.86541 | -8.50542 | 851 ft | 133 kts | 160° |
| 2026-05-07 23:52 | 51.85725 | -8.50059 | 684 ft | 132 kts | 160° |
| 2026-05-07 23:53 | 51.84860 | -8.49547 | 521 ft | 132 kts | 160° |
| 2026-05-07 23:53 | 51.84089 | -8.49086 | 472 ft | 99 kts | 160° |
| 2026-05-07 23:53 | 51.83705 | -8.48860 | 468 ft | 16 kts | 160° |
| 2026-05-07 23:53 | 51.83638 | -8.48814 | 468 ft | 4 kts | 259° |
| 2026-05-07 23:54 | 51.83733 | -8.48877 | 468 ft | 30 kts | 341° |
| 2026-05-07 23:54 | 51.83985 | -8.49021 | 470 ft | 41 kts | 340° |
| 2026-05-07 23:54 | 51.84249 | -8.49180 | 482 ft | 40 kts | 339° |
| 2026-05-07 23:54 | 51.84509 | -8.49335 | 489 ft | 40 kts | 340° |
| 2026-05-07 23:55 | 51.84725 | -8.49459 | 481 ft | 21 kts | 342° |
| 2026-05-07 23:55 | 51.84797 | -8.49327 | 492 ft | 17 kts | 77° |
| 2026-05-07 23:55 | 51.84772 | -8.49167 | 503 ft | 15 kts | 87° |
| 2026-05-07 23:55 | 51.84797 | -8.49046 | 503 ft | 6 kts | 68° |
| 2026-05-07 23:56 | 51.84803 | -8.49016 | 503 ft | 0 kts | 71° |